sensor_id;sensor_type;location;lat;lon;timestamp;P1;durP1;ratioP1;P2;durP2;ratioP2
78686;SDS011;68002;52.310;6.990;2023-04-24T00:01:11;3.73;;;2.17;;
78686;SDS011;68002;52.310;6.990;2023-04-24T00:03:36;4.47;;;2.30;;
78686;SDS011;68002;52.310;6.990;2023-04-24T00:06:01;3.70;;;2.33;;
78686;SDS011;68002;52.310;6.990;2023-04-24T00:08:27;4.97;;;2.50;;
78686;SDS011;68002;52.310;6.990;2023-04-24T00:10:52;5.90;;;2.53;;
78686;SDS011;68002;52.310;6.990;2023-04-24T00:13:17;4.00;;;2.20;;
78686;SDS011;68002;52.310;6.990;2023-04-24T00:15:42;5.83;;;2.53;;
78686;SDS011;68002;52.310;6.990;2023-04-24T00:18:07;3.90;;;2.97;;
78686;SDS011;68002;52.310;6.990;2023-04-24T00:20:33;3.80;;;1.87;;
78686;SDS011;68002;52.310;6.990;2023-04-24T00:22:59;5.47;;;2.67;;
78686;SDS011;68002;52.310;6.990;2023-04-24T00:25:24;4.00;;;3.00;;
78686;SDS011;68002;52.310;6.990;2023-04-24T00:27:49;4.80;;;2.80;;
78686;SDS011;68002;52.310;6.990;2023-04-24T00:30:14;4.57;;;3.33;;
78686;SDS011;68002;52.310;6.990;2023-04-24T00:32:40;4.03;;;2.20;;
78686;SDS011;68002;52.310;6.990;2023-04-24T00:35:05;4.03;;;2.40;;
78686;SDS011;68002;52.310;6.990;2023-04-24T00:37:31;4.07;;;2.67;;
78686;SDS011;68002;52.310;6.990;2023-04-24T00:39:56;4.65;;;2.55;;
78686;SDS011;68002;52.310;6.990;2023-04-24T00:42:21;4.40;;;2.40;;
78686;SDS011;68002;52.310;6.990;2023-04-24T00:44:46;4.30;;;2.53;;
78686;SDS011;68002;52.310;6.990;2023-04-24T00:47:12;6.33;;;2.77;;
78686;SDS011;68002;52.310;6.990;2023-04-24T00:49:37;5.38;;;3.13;;
78686;SDS011;68002;52.310;6.990;2023-04-24T00:52:03;5.17;;;3.17;;
78686;SDS011;68002;52.310;6.990;2023-04-24T00:54:28;5.03;;;3.13;;
78686;SDS011;68002;52.310;6.990;2023-04-24T00:56:53;5.83;;;3.63;;
78686;SDS011;68002;52.310;6.990;2023-04-24T00:59:18;6.15;;;3.30;;
78686;SDS011;68002;52.310;6.990;2023-04-24T01:01:44;9.27;;;4.40;;
78686;SDS011;68002;52.310;6.990;2023-04-24T01:04:10;6.75;;;3.97;;
78686;SDS011;68002;52.310;6.990;2023-04-24T01:06:37;7.75;;;4.50;;
78686;SDS011;68002;52.310;6.990;2023-04-24T01:09:04;6.82;;;4.28;;
78686;SDS011;68002;52.310;6.990;2023-04-24T01:11:29;7.95;;;4.50;;
78686;SDS011;68002;52.310;6.990;2023-04-24T01:13:54;7.77;;;3.87;;
78686;SDS011;68002;52.310;6.990;2023-04-24T01:16:21;9.10;;;4.50;;
78686;SDS011;68002;52.310;6.990;2023-04-24T01:18:46;7.53;;;4.23;;
78686;SDS011;68002;52.310;6.990;2023-04-24T01:21:13;8.40;;;4.47;;
78686;SDS011;68002;52.310;6.990;2023-04-24T01:23:40;8.15;;;4.25;;
78686;SDS011;68002;52.310;6.990;2023-04-24T01:26:05;9.00;;;5.13;;
78686;SDS011;68002;52.310;6.990;2023-04-24T01:28:30;9.73;;;5.35;;
78686;SDS011;68002;52.310;6.990;2023-04-24T01:30:56;8.32;;;4.85;;
78686;SDS011;68002;52.310;6.990;2023-04-24T01:33:21;9.13;;;5.20;;
78686;SDS011;68002;52.310;6.990;2023-04-24T01:35:47;9.07;;;4.82;;
78686;SDS011;68002;52.310;6.990;2023-04-24T01:38:13;8.43;;;5.55;;
78686;SDS011;68002;52.310;6.990;2023-04-24T01:40:38;8.53;;;5.00;;
78686;SDS011;68002;52.310;6.990;2023-04-24T01:43:04;8.48;;;4.80;;
78686;SDS011;68002;52.310;6.990;2023-04-24T01:45:29;7.80;;;4.97;;
78686;SDS011;68002;52.310;6.990;2023-04-24T01:47:54;8.57;;;5.18;;
78686;SDS011;68002;52.310;6.990;2023-04-24T01:50:20;7.40;;;4.47;;
78686;SDS011;68002;52.310;6.990;2023-04-24T01:52:45;6.87;;;3.87;;
78686;SDS011;68002;52.310;6.990;2023-04-24T01:55:10;7.57;;;4.33;;
78686;SDS011;68002;52.310;6.990;2023-04-24T01:57:36;7.73;;;4.20;;
78686;SDS011;68002;52.310;6.990;2023-04-24T02:00:02;7.25;;;3.90;;
78686;SDS011;68002;52.310;6.990;2023-04-24T02:02:28;8.48;;;3.97;;
78686;SDS011;68002;52.310;6.990;2023-04-24T02:04:53;5.65;;;3.38;;
78686;SDS011;68002;52.310;6.990;2023-04-24T02:07:19;6.70;;;3.93;;
78686;SDS011;68002;52.310;6.990;2023-04-24T02:09:44;6.83;;;3.97;;
78686;SDS011;68002;52.310;6.990;2023-04-24T02:12:09;6.37;;;3.70;;
78686;SDS011;68002;52.310;6.990;2023-04-24T02:14:34;8.27;;;4.47;;
78686;SDS011;68002;52.310;6.990;2023-04-24T02:16:59;6.87;;;4.33;;
78686;SDS011;68002;52.310;6.990;2023-04-24T02:19:25;6.87;;;3.83;;
78686;SDS011;68002;52.310;6.990;2023-04-24T02:21:50;8.83;;;4.13;;
78686;SDS011;68002;52.310;6.990;2023-04-24T02:24:15;6.93;;;3.73;;
78686;SDS011;68002;52.310;6.990;2023-04-24T02:26:40;7.07;;;3.83;;
78686;SDS011;68002;52.310;6.990;2023-04-24T02:29:05;7.10;;;4.43;;
78686;SDS011;68002;52.310;6.990;2023-04-24T02:31:31;8.30;;;4.77;;
78686;SDS011;68002;52.310;6.990;2023-04-24T02:33:56;10.07;;;5.37;;
78686;SDS011;68002;52.310;6.990;2023-04-24T02:36:21;10.00;;;4.87;;
78686;SDS011;68002;52.310;6.990;2023-04-24T02:38:46;8.43;;;5.00;;
78686;SDS011;68002;52.310;6.990;2023-04-24T02:41:12;7.57;;;4.53;;
78686;SDS011;68002;52.310;6.990;2023-04-24T02:43:37;11.13;;;5.53;;
78686;SDS011;68002;52.310;6.990;2023-04-24T02:46:02;10.37;;;5.67;;
78686;SDS011;68002;52.310;6.990;2023-04-24T02:48:27;12.20;;;7.40;;
78686;SDS011;68002;52.310;6.990;2023-04-24T02:50:53;12.30;;;6.07;;
78686;SDS011;68002;52.310;6.990;2023-04-24T02:53:18;12.63;;;7.33;;
78686;SDS011;68002;52.310;6.990;2023-04-24T02:55:43;9.33;;;5.60;;
78686;SDS011;68002;52.310;6.990;2023-04-24T02:58:08;13.50;;;7.73;;
78686;SDS011;68002;52.310;6.990;2023-04-24T03:00:34;12.07;;;7.10;;
78686;SDS011;68002;52.310;6.990;2023-04-24T03:02:59;13.10;;;6.93;;
78686;SDS011;68002;52.310;6.990;2023-04-24T03:05:24;12.97;;;6.47;;
78686;SDS011;68002;52.310;6.990;2023-04-24T03:07:49;10.50;;;6.37;;
78686;SDS011;68002;52.310;6.990;2023-04-24T03:10:15;14.37;;;6.37;;
78686;SDS011;68002;52.310;6.990;2023-04-24T03:12:40;15.23;;;7.10;;
78686;SDS011;68002;52.310;6.990;2023-04-24T03:15:05;11.27;;;5.60;;
78686;SDS011;68002;52.310;6.990;2023-04-24T03:17:31;10.80;;;6.53;;
78686;SDS011;68002;52.310;6.990;2023-04-24T03:19:56;10.50;;;5.93;;
78686;SDS011;68002;52.310;6.990;2023-04-24T03:22:21;12.00;;;6.43;;
78686;SDS011;68002;52.310;6.990;2023-04-24T03:24:47;13.87;;;7.37;;
78686;SDS011;68002;52.310;6.990;2023-04-24T03:27:12;14.13;;;7.47;;
78686;SDS011;68002;52.310;6.990;2023-04-24T03:29:37;11.77;;;7.07;;
78686;SDS011;68002;52.310;6.990;2023-04-24T03:32:02;12.73;;;7.73;;
78686;SDS011;68002;52.310;6.990;2023-04-24T03:34:27;16.23;;;8.37;;
78686;SDS011;68002;52.310;6.990;2023-04-24T03:36:53;14.03;;;6.87;;
78686;SDS011;68002;52.310;6.990;2023-04-24T03:39:18;12.97;;;7.20;;
78686;SDS011;68002;52.310;6.990;2023-04-24T03:41:43;13.03;;;7.10;;
78686;SDS011;68002;52.310;6.990;2023-04-24T03:44:08;15.27;;;7.73;;
78686;SDS011;68002;52.310;6.990;2023-04-24T03:46:34;13.40;;;7.30;;
78686;SDS011;68002;52.310;6.990;2023-04-24T03:48:59;14.53;;;6.27;;
78686;SDS011;68002;52.310;6.990;2023-04-24T03:51:24;13.77;;;6.77;;
78686;SDS011;68002;52.310;6.990;2023-04-24T03:53:50;11.53;;;6.93;;
78686;SDS011;68002;52.310;6.990;2023-04-24T03:56:15;12.85;;;6.88;;
78686;SDS011;68002;52.310;6.990;2023-04-24T03:58:40;15.30;;;7.20;;
78686;SDS011;68002;52.310;6.990;2023-04-24T04:01:05;12.63;;;8.10;;
78686;SDS011;68002;52.310;6.990;2023-04-24T04:03:31;12.70;;;6.63;;
78686;SDS011;68002;52.310;6.990;2023-04-24T04:05:56;14.60;;;6.77;;
78686;SDS011;68002;52.310;6.990;2023-04-24T04:08:21;14.83;;;7.70;;
78686;SDS011;68002;52.310;6.990;2023-04-24T04:10:46;13.80;;;7.27;;
78686;SDS011;68002;52.310;6.990;2023-04-24T04:13:12;13.57;;;7.37;;
78686;SDS011;68002;52.310;6.990;2023-04-24T04:15:37;13.60;;;7.90;;
78686;SDS011;68002;52.310;6.990;2023-04-24T04:18:02;16.33;;;8.20;;
78686;SDS011;68002;52.310;6.990;2023-04-24T04:20:27;14.53;;;8.83;;
78686;SDS011;68002;52.310;6.990;2023-04-24T04:22:52;15.27;;;7.60;;
78686;SDS011;68002;52.310;6.990;2023-04-24T04:25:18;17.50;;;7.07;;
78686;SDS011;68002;52.310;6.990;2023-04-24T04:27:43;16.47;;;9.87;;
78686;SDS011;68002;52.310;6.990;2023-04-24T04:30:08;13.40;;;7.97;;
78686;SDS011;68002;52.310;6.990;2023-04-24T04:32:34;17.20;;;8.30;;
78686;SDS011;68002;52.310;6.990;2023-04-24T04:35:00;15.50;;;7.88;;
78686;SDS011;68002;52.310;6.990;2023-04-24T04:37:26;15.98;;;8.93;;
78686;SDS011;68002;52.310;6.990;2023-04-24T04:39:51;18.27;;;9.53;;
78686;SDS011;68002;52.310;6.990;2023-04-24T04:42:16;18.08;;;9.38;;
78686;SDS011;68002;52.310;6.990;2023-04-24T04:44:41;14.47;;;8.27;;
78686;SDS011;68002;52.310;6.990;2023-04-24T04:47:07;15.17;;;8.97;;
78686;SDS011;68002;52.310;6.990;2023-04-24T04:49:32;22.47;;;9.70;;
78686;SDS011;68002;52.310;6.990;2023-04-24T04:51:57;20.23;;;9.13;;
78686;SDS011;68002;52.310;6.990;2023-04-24T04:54:22;16.83;;;9.47;;
78686;SDS011;68002;52.310;6.990;2023-04-24T04:56:49;18.47;;;9.20;;
78686;SDS011;68002;52.310;6.990;2023-04-24T04:59:15;20.45;;;10.02;;
78686;SDS011;68002;52.310;6.990;2023-04-24T05:01:40;18.33;;;9.53;;
78686;SDS011;68002;52.310;6.990;2023-04-24T05:04:05;17.63;;;10.07;;
78686;SDS011;68002;52.310;6.990;2023-04-24T05:06:31;20.23;;;9.80;;
78686;SDS011;68002;52.310;6.990;2023-04-24T05:08:56;18.73;;;9.73;;
78686;SDS011;68002;52.310;6.990;2023-04-24T05:11:21;16.80;;;9.00;;
78686;SDS011;68002;52.310;6.990;2023-04-24T05:13:46;17.67;;;9.10;;
78686;SDS011;68002;52.310;6.990;2023-04-24T05:16:11;18.37;;;8.40;;
78686;SDS011;68002;52.310;6.990;2023-04-24T05:18:37;19.00;;;10.23;;
78686;SDS011;68002;52.310;6.990;2023-04-24T05:21:02;18.87;;;10.03;;
78686;SDS011;68002;52.310;6.990;2023-04-24T05:23:27;17.50;;;9.67;;
78686;SDS011;68002;52.310;6.990;2023-04-24T05:25:52;17.30;;;9.80;;
78686;SDS011;68002;52.310;6.990;2023-04-24T05:28:18;18.23;;;9.57;;
78686;SDS011;68002;52.310;6.990;2023-04-24T05:30:43;18.90;;;9.03;;
78686;SDS011;68002;52.310;6.990;2023-04-24T05:33:08;20.00;;;9.87;;
78686;SDS011;68002;52.310;6.990;2023-04-24T05:35:33;16.00;;;8.90;;
78686;SDS011;68002;52.310;6.990;2023-04-24T05:37:58;18.40;;;9.90;;
78686;SDS011;68002;52.310;6.990;2023-04-24T05:40:24;19.47;;;9.67;;
78686;SDS011;68002;52.310;6.990;2023-04-24T05:42:49;16.90;;;9.60;;
78686;SDS011;68002;52.310;6.990;2023-04-24T05:45:14;16.77;;;9.37;;
78686;SDS011;68002;52.310;6.990;2023-04-24T05:47:39;16.13;;;9.80;;
78686;SDS011;68002;52.310;6.990;2023-04-24T05:50:05;18.43;;;9.63;;
78686;SDS011;68002;52.310;6.990;2023-04-24T05:52:30;18.50;;;9.73;;
78686;SDS011;68002;52.310;6.990;2023-04-24T05:54:55;18.97;;;10.43;;
78686;SDS011;68002;52.310;6.990;2023-04-24T05:57:21;17.43;;;9.33;;
78686;SDS011;68002;52.310;6.990;2023-04-24T05:59:46;17.70;;;9.43;;
78686;SDS011;68002;52.310;6.990;2023-04-24T06:02:11;17.63;;;11.03;;
78686;SDS011;68002;52.310;6.990;2023-04-24T06:04:37;19.40;;;10.07;;
78686;SDS011;68002;52.310;6.990;2023-04-24T06:07:02;16.87;;;9.43;;
78686;SDS011;68002;52.310;6.990;2023-04-24T06:09:27;17.07;;;9.00;;
78686;SDS011;68002;52.310;6.990;2023-04-24T06:11:52;15.20;;;9.00;;
78686;SDS011;68002;52.310;6.990;2023-04-24T06:14:18;16.47;;;9.17;;
78686;SDS011;68002;52.310;6.990;2023-04-24T06:16:43;18.85;;;8.70;;
78686;SDS011;68002;52.310;6.990;2023-04-24T06:19:09;18.77;;;8.90;;
78686;SDS011;68002;52.310;6.990;2023-04-24T06:21:34;16.38;;;9.57;;
78686;SDS011;68002;52.310;6.990;2023-04-24T06:23:59;17.27;;;8.47;;
78686;SDS011;68002;52.310;6.990;2023-04-24T06:26:24;16.70;;;9.07;;
78686;SDS011;68002;52.310;6.990;2023-04-24T06:28:50;15.87;;;8.43;;
78686;SDS011;68002;52.310;6.990;2023-04-24T06:31:16;19.17;;;10.43;;
78686;SDS011;68002;52.310;6.990;2023-04-24T06:33:41;18.35;;;9.00;;
78686;SDS011;68002;52.310;6.990;2023-04-24T06:36:06;15.27;;;8.53;;
78686;SDS011;68002;52.310;6.990;2023-04-24T06:38:31;16.17;;;8.43;;
78686;SDS011;68002;52.310;6.990;2023-04-24T06:40:57;16.40;;;8.70;;
78686;SDS011;68002;52.310;6.990;2023-04-24T06:43:22;14.20;;;8.63;;
78686;SDS011;68002;52.310;6.990;2023-04-24T06:45:47;15.43;;;9.07;;
78686;SDS011;68002;52.310;6.990;2023-04-24T06:48:12;15.13;;;8.03;;
78686;SDS011;68002;52.310;6.990;2023-04-24T06:50:38;13.90;;;8.40;;
78686;SDS011;68002;52.310;6.990;2023-04-24T06:53:03;15.20;;;8.00;;
78686;SDS011;68002;52.310;6.990;2023-04-24T06:55:28;14.53;;;8.17;;
78686;SDS011;68002;52.310;6.990;2023-04-24T06:57:54;15.40;;;8.73;;
78686;SDS011;68002;52.310;6.990;2023-04-24T07:00:19;15.27;;;7.73;;
78686;SDS011;68002;52.310;6.990;2023-04-24T07:02:44;14.63;;;7.90;;
78686;SDS011;68002;52.310;6.990;2023-04-24T07:05:10;14.30;;;7.20;;
78686;SDS011;68002;52.310;6.990;2023-04-24T07:07:35;13.38;;;7.95;;
78686;SDS011;68002;52.310;6.990;2023-04-24T07:10:00;12.27;;;7.13;;
78686;SDS011;68002;52.310;6.990;2023-04-24T07:12:26;12.43;;;7.67;;
78686;SDS011;68002;52.310;6.990;2023-04-24T07:14:51;12.50;;;7.43;;
78686;SDS011;68002;52.310;6.990;2023-04-24T07:17:16;13.87;;;7.60;;
78686;SDS011;68002;52.310;6.990;2023-04-24T07:19:42;12.85;;;6.75;;
78686;SDS011;68002;52.310;6.990;2023-04-24T07:22:07;10.70;;;6.07;;
78686;SDS011;68002;52.310;6.990;2023-04-24T07:24:32;14.20;;;7.20;;
78686;SDS011;68002;52.310;6.990;2023-04-24T07:26:58;13.25;;;7.53;;
78686;SDS011;68002;52.310;6.990;2023-04-24T07:29:23;13.32;;;7.88;;
78686;SDS011;68002;52.310;6.990;2023-04-24T07:31:49;13.80;;;6.40;;
78686;SDS011;68002;52.310;6.990;2023-04-24T07:34:14;11.73;;;6.53;;
78686;SDS011;68002;52.310;6.990;2023-04-24T07:36:40;10.40;;;5.88;;
78686;SDS011;68002;52.310;6.990;2023-04-24T07:39:06;12.48;;;5.97;;
78686;SDS011;68002;52.310;6.990;2023-04-24T07:41:31;13.93;;;7.25;;
78686;SDS011;68002;52.310;6.990;2023-04-24T07:43:57;10.93;;;5.83;;
78686;SDS011;68002;52.310;6.990;2023-04-24T07:46:23;13.65;;;6.32;;
78686;SDS011;68002;52.310;6.990;2023-04-24T07:48:49;12.20;;;6.05;;
78686;SDS011;68002;52.310;6.990;2023-04-24T07:51:14;14.63;;;6.77;;
78686;SDS011;68002;52.310;6.990;2023-04-24T07:53:40;12.00;;;6.82;;
78686;SDS011;68002;52.310;6.990;2023-04-24T07:56:06;11.73;;;6.32;;
78686;SDS011;68002;52.310;6.990;2023-04-24T07:58:31;11.37;;;6.40;;
78686;SDS011;68002;52.310;6.990;2023-04-24T08:00:56;12.50;;;6.37;;
78686;SDS011;68002;52.310;6.990;2023-04-24T08:03:22;14.63;;;6.83;;
78686;SDS011;68002;52.310;6.990;2023-04-24T08:05:47;12.70;;;6.77;;
78686;SDS011;68002;52.310;6.990;2023-04-24T08:08:12;15.33;;;6.73;;
78686;SDS011;68002;52.310;6.990;2023-04-24T08:10:38;14.15;;;6.50;;
78686;SDS011;68002;52.310;6.990;2023-04-24T08:13:03;12.87;;;6.87;;
78686;SDS011;68002;52.310;6.990;2023-04-24T08:15:28;13.73;;;6.57;;
78686;SDS011;68002;52.310;6.990;2023-04-24T08:17:54;12.80;;;5.97;;
78686;SDS011;68002;52.310;6.990;2023-04-24T08:20:19;11.50;;;5.73;;
78686;SDS011;68002;52.310;6.990;2023-04-24T08:22:44;12.07;;;5.93;;
78686;SDS011;68002;52.310;6.990;2023-04-24T08:25:10;10.80;;;5.17;;
78686;SDS011;68002;52.310;6.990;2023-04-24T08:27:36;9.30;;;5.82;;
78686;SDS011;68002;52.310;6.990;2023-04-24T08:30:01;10.85;;;5.55;;
78686;SDS011;68002;52.310;6.990;2023-04-24T08:32:27;12.43;;;5.40;;
78686;SDS011;68002;52.310;6.990;2023-04-24T08:34:52;11.07;;;4.97;;
78686;SDS011;68002;52.310;6.990;2023-04-24T08:37:18;11.53;;;5.17;;
78686;SDS011;68002;52.310;6.990;2023-04-24T08:39:43;10.73;;;5.85;;
78686;SDS011;68002;52.310;6.990;2023-04-24T08:42:08;11.00;;;5.90;;
78686;SDS011;68002;52.310;6.990;2023-04-24T08:44:35;10.93;;;5.22;;
78686;SDS011;68002;52.310;6.990;2023-04-24T08:47:04;8.93;;;4.50;;
78686;SDS011;68002;52.310;6.990;2023-04-24T08:49:29;9.25;;;4.45;;
78686;SDS011;68002;52.310;6.990;2023-04-24T08:51:55;10.23;;;4.35;;
78686;SDS011;68002;52.310;6.990;2023-04-24T08:54:21;11.10;;;4.93;;
78686;SDS011;68002;52.310;6.990;2023-04-24T08:56:47;8.83;;;4.70;;
78686;SDS011;68002;52.310;6.990;2023-04-24T08:59:16;11.45;;;4.78;;
78686;SDS011;68002;52.310;6.990;2023-04-24T09:01:41;10.43;;;4.45;;
78686;SDS011;68002;52.310;6.990;2023-04-24T09:04:09;7.28;;;4.30;;
78686;SDS011;68002;52.310;6.990;2023-04-24T09:06:35;9.57;;;4.20;;
78686;SDS011;68002;52.310;6.990;2023-04-24T09:09:01;7.85;;;3.65;;
78686;SDS011;68002;52.310;6.990;2023-04-24T09:11:27;7.93;;;3.55;;
78686;SDS011;68002;52.310;6.990;2023-04-24T09:13:55;8.02;;;3.28;;
78686;SDS011;68002;52.310;6.990;2023-04-24T09:16:21;7.43;;;3.38;;
78686;SDS011;68002;52.310;6.990;2023-04-24T09:18:46;7.97;;;3.27;;
78686;SDS011;68002;52.310;6.990;2023-04-24T09:21:11;6.97;;;3.00;;
78686;SDS011;68002;52.310;6.990;2023-04-24T09:23:37;5.50;;;3.13;;
78686;SDS011;68002;52.310;6.990;2023-04-24T09:26:03;5.95;;;2.95;;
78686;SDS011;68002;52.310;6.990;2023-04-24T09:28:29;6.00;;;2.45;;
78686;SDS011;68002;52.310;6.990;2023-04-24T09:33:32;5.07;;;2.63;;
78686;SDS011;68002;52.310;6.990;2023-04-24T09:35:57;5.68;;;3.38;;
78686;SDS011;68002;52.310;6.990;2023-04-24T09:41:05;4.57;;;2.05;;
78686;SDS011;68002;52.310;6.990;2023-04-24T09:43:31;5.25;;;2.25;;
78686;SDS011;68002;52.310;6.990;2023-04-24T09:45:58;5.85;;;2.80;;
78686;SDS011;68002;52.310;6.990;2023-04-24T09:48:33;7.40;;;3.00;;
78686;SDS011;68002;52.310;6.990;2023-04-24T09:51:00;7.15;;;3.30;;
78686;SDS011;68002;52.310;6.990;2023-04-24T09:53:27;8.43;;;4.85;;
78686;SDS011;68002;52.310;6.990;2023-04-24T09:55:53;10.68;;;5.22;;
78686;SDS011;68002;52.310;6.990;2023-04-24T09:58:18;12.23;;;6.40;;
78686;SDS011;68002;52.310;6.990;2023-04-24T10:00:49;14.07;;;7.22;;
78686;SDS011;68002;52.310;6.990;2023-04-24T10:03:18;12.32;;;7.15;;
78686;SDS011;68002;52.310;6.990;2023-04-24T10:05:44;10.87;;;6.60;;
78686;SDS011;68002;52.310;6.990;2023-04-24T10:08:12;14.73;;;8.15;;
78686;SDS011;68002;52.310;6.990;2023-04-24T10:10:38;16.00;;;7.10;;
78686;SDS011;68002;52.310;6.990;2023-04-24T10:13:05;13.98;;;7.13;;
78686;SDS011;68002;52.310;6.990;2023-04-24T10:15:32;13.93;;;7.15;;
78686;SDS011;68002;52.310;6.990;2023-04-24T10:17:58;14.07;;;6.95;;
78686;SDS011;68002;52.310;6.990;2023-04-24T10:20:25;14.00;;;6.90;;
78686;SDS011;68002;52.310;6.990;2023-04-24T10:22:53;17.52;;;7.85;;
78686;SDS011;68002;52.310;6.990;2023-04-24T10:25:26;17.77;;;6.55;;
78686;SDS011;68002;52.310;6.990;2023-04-24T10:27:53;14.88;;;6.95;;
78686;SDS011;68002;52.310;6.990;2023-04-24T10:30:19;13.02;;;6.35;;
78686;SDS011;68002;52.310;6.990;2023-04-24T10:32:45;13.15;;;6.40;;
78686;SDS011;68002;52.310;6.990;2023-04-24T10:35:14;13.15;;;6.40;;
78686;SDS011;68002;52.310;6.990;2023-04-24T10:37:42;12.95;;;6.25;;
78686;SDS011;68002;52.310;6.990;2023-04-24T10:40:10;12.88;;;6.68;;
78686;SDS011;68002;52.310;6.990;2023-04-24T10:42:40;15.70;;;7.20;;
78686;SDS011;68002;52.310;6.990;2023-04-24T10:45:06;13.30;;;6.07;;
78686;SDS011;68002;52.310;6.990;2023-04-24T10:47:39;15.45;;;6.60;;
78686;SDS011;68002;52.310;6.990;2023-04-24T10:50:07;14.27;;;6.13;;
78686;SDS011;68002;52.310;6.990;2023-04-24T10:52:44;10.25;;;5.70;;
78686;SDS011;68002;52.310;6.990;2023-04-24T10:55:10;10.93;;;4.95;;
78686;SDS011;68002;52.310;6.990;2023-04-24T10:57:38;10.50;;;5.75;;
78686;SDS011;68002;52.310;6.990;2023-04-24T11:00:14;13.47;;;5.87;;
78686;SDS011;68002;52.310;6.990;2023-04-24T11:02:45;11.15;;;6.00;;
78686;SDS011;68002;52.310;6.990;2023-04-24T11:05:12;9.98;;;4.60;;
78686;SDS011;68002;52.310;6.990;2023-04-24T11:08:25;11.23;;;5.22;;
78686;SDS011;68002;52.310;6.990;2023-04-24T11:10:43;11.27;;;4.22;;
78686;SDS011;68002;52.310;6.990;2023-04-24T11:13:10;5.47;;;2.97;;
78686;SDS011;68002;52.310;6.990;2023-04-24T11:15:35;6.23;;;2.70;;
78686;SDS011;68002;52.310;6.990;2023-04-24T11:18:00;6.43;;;2.60;;
78686;SDS011;68002;52.310;6.990;2023-04-24T11:20:25;6.20;;;2.90;;
78686;SDS011;68002;52.310;6.990;2023-04-24T11:22:52;4.97;;;2.83;;
78686;SDS011;68002;52.310;6.990;2023-04-24T11:25:18;9.25;;;3.60;;
78686;SDS011;68002;52.310;6.990;2023-04-24T11:27:43;6.40;;;3.07;;
78686;SDS011;68002;52.310;6.990;2023-04-24T11:30:10;5.05;;;2.25;;
78686;SDS011;68002;52.310;6.990;2023-04-24T11:32:36;6.88;;;3.10;;
78686;SDS011;68002;52.310;6.990;2023-04-24T11:35:13;6.57;;;2.83;;
78686;SDS011;68002;52.310;6.990;2023-04-24T11:37:39;6.53;;;2.70;;
78686;SDS011;68002;52.310;6.990;2023-04-24T11:40:12;7.03;;;3.08;;
78686;SDS011;68002;52.310;6.990;2023-04-24T11:42:39;7.20;;;2.90;;
78686;SDS011;68002;52.310;6.990;2023-04-24T11:47:36;5.82;;;2.58;;
78686;SDS011;68002;52.310;6.990;2023-04-24T11:50:02;7.55;;;2.78;;
78686;SDS011;68002;52.310;6.990;2023-04-24T11:52:31;9.18;;;2.60;;
78686;SDS011;68002;52.310;6.990;2023-04-24T11:55:01;10.10;;;3.22;;
78686;SDS011;68002;52.310;6.990;2023-04-24T11:57:26;6.57;;;3.17;;
78686;SDS011;68002;52.310;6.990;2023-04-24T11:59:51;9.00;;;2.70;;
78686;SDS011;68002;52.310;6.990;2023-04-24T12:02:23;10.77;;;3.17;;
78686;SDS011;68002;52.310;6.990;2023-04-24T12:04:49;6.78;;;2.13;;
78686;SDS011;68002;52.310;6.990;2023-04-24T12:07:15;4.60;;;2.17;;
78686;SDS011;68002;52.310;6.990;2023-04-24T12:09:41;6.37;;;2.20;;
78686;SDS011;68002;52.310;6.990;2023-04-24T12:12:07;5.32;;;1.98;;
78686;SDS011;68002;52.310;6.990;2023-04-24T12:14:32;4.97;;;2.13;;
78686;SDS011;68002;52.310;6.990;2023-04-24T12:16:57;6.00;;;1.90;;
78686;SDS011;68002;52.310;6.990;2023-04-24T12:19:23;4.63;;;1.67;;
78686;SDS011;68002;52.310;6.990;2023-04-24T12:22:02;6.80;;;2.42;;
78686;SDS011;68002;52.310;6.990;2023-04-24T12:24:28;6.20;;;1.75;;
78686;SDS011;68002;52.310;6.990;2023-04-24T12:26:54;5.10;;;1.83;;
78686;SDS011;68002;52.310;6.990;2023-04-24T12:29:20;6.67;;;1.60;;
78686;SDS011;68002;52.310;6.990;2023-04-24T12:31:45;6.28;;;1.75;;
78686;SDS011;68002;52.310;6.990;2023-04-24T12:34:20;4.40;;;1.80;;
78686;SDS011;68002;52.310;6.990;2023-04-24T12:36:47;7.50;;;2.00;;
78686;SDS011;68002;52.310;6.990;2023-04-24T12:39:16;8.38;;;2.03;;
78686;SDS011;68002;52.310;6.990;2023-04-24T12:42:00;5.05;;;2.03;;
78686;SDS011;68002;52.310;6.990;2023-04-24T12:44:29;4.70;;;1.95;;
78686;SDS011;68002;52.310;6.990;2023-04-24T12:46:55;6.03;;;1.65;;
78686;SDS011;68002;52.310;6.990;2023-04-24T12:49:21;6.63;;;2.20;;
78686;SDS011;68002;52.310;6.990;2023-04-24T12:51:46;4.27;;;1.83;;
78686;SDS011;68002;52.310;6.990;2023-04-24T12:54:11;5.33;;;1.73;;
78686;SDS011;68002;52.310;6.990;2023-04-24T12:56:36;3.10;;;1.87;;
78686;SDS011;68002;52.310;6.990;2023-04-24T12:59:01;3.57;;;2.00;;
78686;SDS011;68002;52.310;6.990;2023-04-24T13:01:27;3.10;;;1.43;;
78686;SDS011;68002;52.310;6.990;2023-04-24T13:03:52;5.67;;;1.60;;
78686;SDS011;68002;52.310;6.990;2023-04-24T13:06:17;5.33;;;2.00;;
78686;SDS011;68002;52.310;6.990;2023-04-24T13:08:42;7.53;;;2.00;;
78686;SDS011;68002;52.310;6.990;2023-04-24T13:11:07;4.33;;;1.70;;
78686;SDS011;68002;52.310;6.990;2023-04-24T13:13:33;5.47;;;1.27;;
78686;SDS011;68002;52.310;6.990;2023-04-24T13:15:58;4.27;;;1.57;;
78686;SDS011;68002;52.310;6.990;2023-04-24T13:18:23;4.53;;;1.50;;
78686;SDS011;68002;52.310;6.990;2023-04-24T13:20:48;4.40;;;1.63;;
78686;SDS011;68002;52.310;6.990;2023-04-24T13:23:14;3.33;;;1.23;;
78686;SDS011;68002;52.310;6.990;2023-04-24T13:25:39;6.27;;;1.37;;
78686;SDS011;68002;52.310;6.990;2023-04-24T13:28:04;5.13;;;1.13;;
78686;SDS011;68002;52.310;6.990;2023-04-24T13:30:29;4.23;;;1.13;;
78686;SDS011;68002;52.310;6.990;2023-04-24T13:32:54;4.73;;;1.17;;
78686;SDS011;68002;52.310;6.990;2023-04-24T13:35:20;2.80;;;1.30;;
78686;SDS011;68002;52.310;6.990;2023-04-24T13:37:45;3.70;;;0.90;;
78686;SDS011;68002;52.310;6.990;2023-04-24T13:40:10;4.27;;;1.30;;
78686;SDS011;68002;52.310;6.990;2023-04-24T13:42:36;2.85;;;1.40;;
78686;SDS011;68002;52.310;6.990;2023-04-24T13:45:01;4.93;;;1.27;;
78686;SDS011;68002;52.310;6.990;2023-04-24T13:47:26;4.30;;;0.90;;
78686;SDS011;68002;52.310;6.990;2023-04-24T13:49:51;2.90;;;1.13;;
78686;SDS011;68002;52.310;6.990;2023-04-24T13:52:17;2.67;;;1.17;;
78686;SDS011;68002;52.310;6.990;2023-04-24T13:54:42;2.33;;;0.87;;
78686;SDS011;68002;52.310;6.990;2023-04-24T13:57:07;3.77;;;1.23;;
78686;SDS011;68002;52.310;6.990;2023-04-24T13:59:32;2.87;;;1.03;;
78686;SDS011;68002;52.310;6.990;2023-04-24T14:01:57;2.43;;;0.73;;
78686;SDS011;68002;52.310;6.990;2023-04-24T14:04:23;1.80;;;0.80;;
78686;SDS011;68002;52.310;6.990;2023-04-24T14:06:48;1.17;;;0.50;;
78686;SDS011;68002;52.310;6.990;2023-04-24T14:09:13;1.43;;;0.57;;
78686;SDS011;68002;52.310;6.990;2023-04-24T14:11:38;1.97;;;0.77;;
78686;SDS011;68002;52.310;6.990;2023-04-24T14:14:04;1.75;;;0.70;;
78686;SDS011;68002;52.310;6.990;2023-04-24T14:16:29;1.77;;;0.70;;
78686;SDS011;68002;52.310;6.990;2023-04-24T14:18:54;2.13;;;0.70;;
78686;SDS011;68002;52.310;6.990;2023-04-24T14:21:19;1.40;;;0.83;;
78686;SDS011;68002;52.310;6.990;2023-04-24T14:23:45;1.73;;;0.80;;
78686;SDS011;68002;52.310;6.990;2023-04-24T14:26:10;1.60;;;0.70;;
78686;SDS011;68002;52.310;6.990;2023-04-24T14:28:35;2.57;;;0.60;;
78686;SDS011;68002;52.310;6.990;2023-04-24T14:31:00;1.80;;;0.60;;
78686;SDS011;68002;52.310;6.990;2023-04-24T14:33:26;3.10;;;0.80;;
78686;SDS011;68002;52.310;6.990;2023-04-24T14:35:51;2.73;;;0.87;;
78686;SDS011;68002;52.310;6.990;2023-04-24T14:38:16;7.07;;;0.83;;
78686;SDS011;68002;52.310;6.990;2023-04-24T14:40:41;3.40;;;0.67;;